Time;durP1;ratioP1;P1;durP2;ratioP2;P2;SDS_P1;SDS_P2;PMS_P1;PMS_P2;Temp;Humidity;BMP_temperature;BMP_pressure;BME280_temperature;BME280_humidity;BME280_pressure;Samples;Min_cycle;Max_cycle;Signal;HPM_P1;HPM_P2
2023/03/17 00:03:48;;;;;;;;;;;4.60;99.90;;;;;;20924879;28;20642;-77
2023/03/17 00:13:49;;;;;;;5.82;2.08;;;4.40;99.90;;;;;;20920270;28;19913;-77
2023/03/17 00:23:50;;;;;;;4.30;2.10;;;4.40;99.90;;;;;;20918203;28;20029;-76
2023/03/17 00:33:52;;;;;;;7.40;2.53;;;4.30;99.90;;;;;;20917568;28;20480;-77
2023/03/17 00:43:54;;;;;;;10.13;3.03;;;4.30;99.90;;;;;;20915598;28;20033;-76
2023/03/17 00:53:55;;;;;;;12.68;3.80;;;4.30;99.90;;;;;;20916297;28;20445;-77
2023/03/17 01:03:56;;;;;;;5.10;3.10;;;4.20;99.90;;;;;;20915332;28;20044;-77
2023/03/17 01:13:57;;;;;;;7.22;3.28;;;4.10;99.90;;;;;;20913305;28;20037;-76
2023/03/17 01:23:59;;;;;;;6.88;2.97;;;4.10;99.90;;;;;;20912242;28;20037;-77
2023/03/17 01:33:59;;;;;;;5.28;2.90;;;3.90;99.90;;;;;;20916663;28;20119;-77
2023/03/17 01:44:00;;;;;;;9.32;3.50;;;3.70;99.90;;;;;;20911969;28;20565;-77
2023/03/17 01:54:23;;;;;;;8.23;3.97;;;3.50;99.90;;;;;;20911432;28;20040;-77
2023/03/17 02:04:25;;;;;;;4.30;2.55;;;3.40;99.90;;;;;;20910898;28;20040;-77
2023/03/17 02:14:26;;;;;;;5.53;3.22;;;2.90;99.90;;;;;;20911033;28;20037;-77
2023/03/17 02:24:31;;;;;;;7.13;2.97;;;2.80;99.90;;;;;;20916116;28;20044;-77
2023/03/17 02:34:33;;;;;;;8.07;3.20;;;3.10;99.90;;;;;;20916582;28;20519;-77
2023/03/17 02:44:34;;;;;;;6.28;3.28;;;3.10;99.90;;;;;;20908346;28;20484;-77
2023/03/17 02:54:35;;;;;;;6.25;3.63;;;3.10;99.90;;;;;;20910383;28;20395;-77
2023/03/17 03:04:36;;;;;;;6.05;3.72;;;3.10;99.90;;;;;;20911038;28;20068;-76
2023/03/17 03:14:37;;;;;;;8.98;4.22;;;3.20;99.90;;;;;;20908442;28;20037;-77
2023/03/17 03:24:37;;;;;;;7.63;4.25;;;3.00;99.90;;;;;;20910792;28;20029;-77
2023/03/17 03:34:38;;;;;;;7.93;4.03;;;3.00;99.90;;;;;;20916670;28;20037;-77
2023/03/17 03:44:39;;;;;;;5.80;3.58;;;3.10;99.90;;;;;;20913045;28;20572;-75
2023/03/17 03:54:39;;;;;;;5.45;3.53;;;2.80;99.90;;;;;;20929316;28;20040;-76
2023/03/17 04:04:40;;;;;;;8.63;3.88;;;2.90;99.90;;;;;;20924772;28;20036;-76
2023/03/17 04:14:43;;;;;;;8.88;3.60;;;3.10;99.90;;;;;;20921802;28;20040;-77
2023/03/17 04:24:44;;;;;;;6.43;3.33;;;3.30;99.90;;;;;;20922994;28;20094;-77
2023/03/17 04:34:45;;;;;;;5.75;3.53;;;3.10;99.90;;;;;;20867738;28;20044;-77
2023/03/17 04:44:46;;;;;;;7.72;3.63;;;2.70;99.90;;;;;;20894979;28;20144;-77
2023/03/17 04:54:47;;;;;;;6.50;3.58;;;2.50;99.90;;;;;;20907839;28;20115;-77
2023/03/17 05:04:47;;;;;;;10.68;3.85;;;2.60;99.90;;;;;;20902135;28;20502;-77
2023/03/17 05:14:48;;;;;;;8.07;3.42;;;2.70;99.90;;;;;;20873257;28;20036;-75
2023/03/17 05:24:49;;;;;;;7.03;3.40;;;2.60;99.90;;;;;;20909955;28;20129;-76
2023/03/17 05:34:50;;;;;;;5.72;2.53;;;2.70;99.90;;;;;;20911442;28;20499;-76
2023/03/17 05:44:52;;;;;;;7.95;4.03;;;2.40;99.90;;;;;;20908878;28;20037;-77
2023/03/17 05:54:53;;;;;;;10.48;3.67;;;2.40;99.90;;;;;;20902925;28;20029;-76
2023/03/17 06:04:54;;;;;;;6.13;3.00;;;2.50;99.90;;;;;;20907928;28;20033;-76
2023/03/17 06:14:55;;;;;;;8.15;3.30;;;2.60;99.90;;;;;;20852994;28;20043;-75
2023/03/17 06:24:56;;;;;;;6.90;2.70;;;2.70;99.90;;;;;;20825515;28;20056;-75
2023/03/17 06:34:56;;;;;;;8.95;3.28;;;3.10;99.90;;;;;;20822811;28;20048;-76
2023/03/17 06:44:57;;;;;;;6.88;3.45;;;3.30;99.90;;;;;;20883444;28;20029;-76
2023/03/17 06:54:58;;;;;;;7.25;3.50;;;3.70;99.90;;;;;;20889382;28;20026;-75
2023/03/17 07:04:59;;;;;;;6.03;3.10;;;3.70;99.90;;;;;;20843426;28;20060;-77
2023/03/17 07:15:00;;;;;;;13.48;3.33;;;3.70;99.90;;;;;;20905662;28;20072;-76
2023/03/17 07:25:01;;;;;;;4.93;3.08;;;3.80;99.90;;;;;;20915687;28;20032;-76
2023/03/17 07:35:03;;;;;;;5.22;2.92;;;4.60;99.90;;;;;;20919400;28;20060;-76
2023/03/17 07:45:05;;;;;;;5.38;3.03;;;5.00;99.90;;;;;;20918693;28;20039;-76
2023/03/17 07:55:11;;;;;;;8.27;3.65;;;5.50;99.90;;;;;;20919066;28;20036;-76
2023/03/17 08:05:12;;;;;;;6.93;4.00;;;5.20;99.90;;;;;;20918249;28;20044;-75
2023/03/17 08:15:13;;;;;;;;;;;5.40;99.90;;;;;;20921405;28;20432;-76
2023/03/17 08:25:18;;;;;;;5.15;3.15;;;6.40;99.90;;;;;;20916072;28;20291;-75
2023/03/17 08:35:19;;;;;;;9.90;3.40;;;7.00;99.90;;;;;;20915924;28;20056;-76
2023/03/17 08:45:21;;;;;;;8.15;3.80;;;7.40;99.90;;;;;;20914580;28;20029;-76
2023/03/17 08:55:21;;;;;;;6.90;3.60;;;8.00;99.90;;;;;;20914378;28;20037;-76
2023/03/17 09:05:22;;;;;;;8.67;3.83;;;9.90;99.90;;;;;;20913597;28;20395;-76
2023/03/17 09:15:23;;;;;;;6.27;3.73;;;10.10;99.90;;;;;;20912833;28;20052;-76
2023/03/17 09:25:25;;;;;;;6.57;4.23;;;10.50;99.90;;;;;;20910959;28;20037;-76
2023/03/17 09:35:27;;;;;;;7.88;5.03;;;10.40;99.90;;;;;;20911679;28;20454;-76
2023/03/17 09:45:37;;;;;;;7.72;5.03;;;10.80;99.90;;;;;;20907830;28;20170;-76
2023/03/17 09:55:38;;;;;;;7.97;4.25;;;10.30;99.90;;;;;;20909540;28;20101;-75
2023/03/17 10:05:39;;;;;;;9.33;5.40;;;10.90;99.90;;;;;;20909864;28;20119;-77
2023/03/17 10:15:51;;;;;;;9.03;5.47;;;10.40;99.90;;;;;;20908480;28;20032;-77
2023/03/17 10:25:52;;;;;;;;;;;11.10;99.90;;;;;;20906961;28;20461;-76
2023/03/17 10:35:53;;;;;;;15.35;4.93;;;12.70;99.90;;;;;;20908032;28;19920;-77
2023/03/17 10:46:03;;;;;;;8.27;4.60;;;13.70;99.90;;;;;;20906818;28;20399;-78
2023/03/17 10:56:09;;;;;;;8.68;4.95;;;13.20;99.90;;;;;;20913789;28;20048;-78
2023/03/17 11:06:30;;;;;;;9.80;5.85;;;12.90;99.90;;;;;;20923985;28;20083;-78
2023/03/17 11:16:36;;;;;;;6.85;4.65;;;14.00;99.90;;;;;;20872799;28;20028;-78
2023/03/17 11:27:03;;;;;;;8.27;4.93;;;14.60;99.90;;;;;;20921471;28;20116;-77
2023/03/17 11:37:54;;;;;;;10.25;5.50;;;14.20;99.90;;;;;;20920748;28;20037;-78
2023/03/17 11:48:16;;;;;;;13.25;4.78;;;13.60;99.90;;;;;;20664821;28;20038;-78
2023/03/17 11:58:38;;;;;;;8.98;4.57;;;16.50;99.90;;;;;;20665900;28;20050;-79
2023/03/17 12:08:45;;;;;;;9.43;4.87;;;16.90;99.90;;;;;;20655290;28;20479;-79
2023/03/17 12:18:54;;;;;;;7.78;4.55;;;17.90;99.90;;;;;;20817538;28;20041;-77
2023/03/17 12:29:08;;;;;;;11.55;4.47;;;16.40;99.90;;;;;;20819097;28;20437;-77
2023/03/17 12:39:15;;;;;;;7.50;3.72;;;17.40;99.90;;;;;;20853729;28;20094;-78
2023/03/17 12:49:29;;;;;;;10.68;4.07;;;18.70;99.90;;;;;;20919080;28;20040;-78
2023/03/17 12:59:30;;;;;;;9.95;4.47;;;16.60;99.90;;;;;;20913502;28;20043;-78
2023/03/17 13:09:31;;;;;;;10.98;3.83;;;16.30;99.90;;;;;;20897579;28;20590;-77
2023/03/17 13:19:33;;;;;;;11.13;4.77;;;17.30;99.90;;;;;;20829663;28;20044;-78
2023/03/17 13:29:34;;;;;;;10.77;5.20;;;17.40;99.90;;;;;;20830049;28;20563;-78
2023/03/17 13:40:06;;;;;;;11.93;4.77;;;17.90;99.90;;;;;;20830538;28;20075;-77
2023/03/17 13:50:23;;;;;;;14.90;7.43;;;17.60;99.90;;;;;;20829694;28;20034;-77
2023/03/17 14:00:27;;;;;;;9.07;3.80;;;17.20;99.90;;;;;;20827499;28;20084;-78
2023/03/17 14:10:31;;;;;;;9.20;3.72;;;17.00;99.90;;;;;;20827025;28;20029;-77
2023/03/17 14:20:32;;;;;;;10.85;4.20;;;17.00;99.90;;;;;;20825430;28;20128;-77
2023/03/17 14:30:35;;;;;;;12.70;3.57;;;17.20;99.90;;;;;;20825831;28;20496;-77
2023/03/17 14:40:36;;;;;;;8.23;3.10;;;16.40;99.90;;;;;;20849391;28;20491;-77
2023/03/17 14:50:36;;;;;;;5.33;2.80;;;16.20;99.90;;;;;;20907030;28;20037;-78
2023/03/17 15:00:44;;;;;;;15.40;3.70;;;16.30;99.90;;;;;;20906647;28;20109;-77
2023/03/17 15:10:46;;;;;;;6.13;3.20;;;16.80;99.90;;;;;;20906746;28;20035;-77
2023/03/17 15:20:46;;;;;;;;;;;17.10;99.90;;;;;;20905995;28;20079;-77
2023/03/17 15:30:49;;;;;;;4.77;2.30;;;17.40;99.90;;;;;;20882904;28;19913;-76
2023/03/17 15:40:50;;;;;;;12.75;2.47;;;17.20;99.90;;;;;;20853437;28;20069;-76
2023/03/17 15:50:54;;;;;;;14.00;2.07;;;16.90;99.90;;;;;;20849021;28;20715;-76
2023/03/17 16:00:58;;;;;;;5.13;1.70;;;17.10;99.90;;;;;;20866361;28;20109;-76
2023/03/17 16:10:59;;;;;;;5.57;1.90;;;17.20;99.90;;;;;;20916054;28;20496;-76
2023/03/17 16:21:01;;;;;;;3.67;1.57;;;17.10;99.90;;;;;;20916632;28;20040;-76
2023/03/17 16:31:08;;;;;;;3.42;1.60;;;16.80;99.90;;;;;;20916330;28;20396;-75
2023/03/17 16:41:16;;;;;;;12.98;4.78;;;16.10;99.90;;;;;;20915608;28;20041;-77
2023/03/17 16:51:17;;;;;;;16.63;9.13;;;16.20;99.90;;;;;;20914441;28;20117;-76
2023/03/17 17:01:24;;;;;;;9.23;4.37;;;15.70;99.90;;;;;;20914154;28;20375;-76
2023/03/17 17:11:25;;;;;;;8.07;1.98;;;15.10;99.90;;;;;;20913244;28;20610;-76
2023/03/17 17:21:26;;;;;;;4.63;1.70;;;14.20;99.90;;;;;;20912262;28;20060;-76
2023/03/17 17:31:28;;;;;;;;;;;13.50;99.90;;;;;;20934266;23;21067;-81
2023/03/17 17:41:29;;;;;;;7.15;3.63;;;12.90;99.90;;;;;;20974813;28;19954;-81
2023/03/17 17:51:31;;;;;;;9.03;3.20;;;12.40;99.90;;;;;;20995773;28;20036;-81
2023/03/17 18:01:32;;;;;;;10.88;3.25;;;12.10;99.90;;;;;;20950818;28;20124;-80
2023/03/17 18:11:33;;;;;;;8.93;4.07;;;11.50;99.90;;;;;;20948213;28;20032;-80
2023/03/17 18:21:35;;;;;;;12.73;4.73;;;11.20;99.90;;;;;;20891430;28;20029;-79
2023/03/17 18:31:47;;;;;;;12.85;5.97;;;11.00;99.90;;;;;;20885451;28;20032;-79
2023/03/17 18:41:48;;;;;;;9.52;3.78;;;10.80;99.90;;;;;;20902341;28;20025;-79
2023/03/17 18:51:49;;;;;;;6.10;2.95;;;10.80;99.90;;;;;;20914662;28;20029;-78
2023/03/17 19:01:50;;;;;;;9.63;4.35;;;10.40;99.90;;;;;;20899571;28;20025;-79
2023/03/17 19:11:51;;;;;;;11.53;3.80;;;10.30;99.90;;;;;;20861911;28;20056;-80
2023/03/17 19:21:52;;;;;;;7.13;2.63;;;10.30;99.90;;;;;;20925004;28;20024;-81
2023/03/17 19:31:53;;;;;;;14.43;5.60;;;10.20;99.90;;;;;;20935457;28;20017;-81
2023/03/17 19:41:54;;;;;;;10.03;4.80;;;9.80;99.90;;;;;;20966735;28;20035;-81
2023/03/17 19:51:55;;;;;;;10.13;5.47;;;9.80;99.90;;;;;;21005344;28;20406;-81
2023/03/17 20:01:57;;;;;;;12.35;5.20;;;9.50;99.90;;;;;;20977048;28;20037;-80
2023/03/17 20:11:58;;;;;;;;;;;9.40;99.90;;;;;;20844556;28;20454;-79
2023/03/17 20:21:58;;;;;;;12.00;5.13;;;9.30;99.90;;;;;;20840378;28;19916;-81
2023/03/17 20:32:00;;;;;;;10.33;4.83;;;8.90;99.90;;;;;;20897673;28;20135;-80
2023/03/17 20:42:03;;;;;;;12.02;4.13;;;8.80;99.90;;;;;;20836798;28;20046;-79
2023/03/17 20:52:05;;;;;;;12.70;5.30;;;8.80;99.90;;;;;;20886627;28;20033;-81
2023/03/17 21:02:13;;;;;;;14.35;4.88;;;8.80;99.90;;;;;;20967257;28;20487;-80
2023/03/17 21:12:17;;;;;;;8.20;3.75;;;8.70;99.90;;;;;;20839652;28;20068;-80
2023/03/17 21:22:18;;;;;;;14.07;4.88;;;8.50;99.90;;;;;;20831845;28;20061;-80
2023/03/17 21:32:18;;;;;;;11.20;3.70;;;8.40;99.90;;;;;;20831789;28;20045;-80
2023/03/17 21:42:19;;;;;;;11.97;4.17;;;8.10;99.90;;;;;;20854932;28;20032;-81
2023/03/17 21:52:20;;;;;;;16.77;4.30;;;8.00;99.90;;;;;;20906129;28;20072;-81
2023/03/17 22:02:22;;;;;;;16.42;5.18;;;7.90;99.90;;;;;;20913996;28;20108;-80
2023/03/17 22:12:23;;;;;;;10.77;4.65;;;7.50;99.90;;;;;;20830610;28;20036;-80
2023/03/17 22:22:24;;;;;;;;;;;7.40;99.90;;;;;;20831237;28;20033;-80
2023/03/17 22:32:25;;;;;;;8.23;3.90;;;7.50;99.90;;;;;;20898277;28;19913;-80
2023/03/17 22:42:26;;;;;;;8.20;3.80;;;7.40;99.90;;;;;;20849899;28;20290;-81
2023/03/17 22:52:26;;;;;;;10.50;4.37;;;7.20;99.90;;;;;;20893513;28;20032;-81
2023/03/17 23:02:27;;;;;;;8.20;3.23;;;7.20;99.90;;;;;;20890112;28;20038;-81
2023/03/17 23:12:28;;;;;;;7.27;3.40;;;7.20;99.90;;;;;;20850610;28;20036;-81
2023/03/17 23:22:29;;;;;;;15.23;3.70;;;7.20;99.90;;;;;;20854119;28;20037;-80
2023/03/17 23:32:30;;;;;;;7.40;3.88;;;7.10;99.90;;;;;;20885344;23;20052;-78
2023/03/17 23:42:32;;;;;;;7.40;4.07;;;7.10;99.90;;;;;;20981837;28;20031;-78
2023/03/17 23:52:33;;;;;;;7.75;3.38;;;7.00;99.90;;;;;;20953389;28;20567;-77
